createdAt,value
2023-01-22T00:04:23.831Z,7.45
2023-01-22T00:06:50.367Z,6.70
2023-01-22T00:09:16.944Z,7.35
2023-01-22T00:11:43.494Z,7.00
2023-01-22T00:14:10.220Z,7.35
2023-01-22T00:16:36.870Z,6.60
2023-01-22T00:19:03.434Z,6.78
2023-01-22T00:21:29.997Z,6.25
2023-01-22T00:23:56.561Z,6.75
2023-01-22T00:26:25.621Z,6.37
2023-01-22T00:31:45.152Z,5.87
2023-01-22T00:34:11.939Z,6.15
2023-01-22T00:36:41.132Z,6.00
2023-01-22T00:39:09.031Z,7.10
2023-01-22T00:42:03.653Z,7.25
2023-01-22T00:44:51.965Z,6.95
2023-01-22T00:47:18.596Z,6.37
2023-01-22T00:49:45.143Z,6.07
2023-01-22T00:52:11.729Z,6.15
2023-01-22T00:54:38.525Z,5.70
2023-01-22T00:57:05.274Z,6.50
2023-01-22T00:59:32.498Z,6.25
2023-01-22T01:01:59.179Z,6.10
2023-01-22T01:04:25.729Z,6.03
2023-01-22T01:06:52.504Z,6.20
2023-01-22T01:09:19.153Z,5.90
2023-01-22T01:11:46.881Z,5.90
2023-01-22T01:14:25.439Z,6.05
2023-01-22T01:16:52.109Z,5.68
2023-01-22T01:19:20.555Z,6.12
2023-01-22T01:21:47.426Z,5.47
2023-01-22T01:24:19.417Z,5.72
2023-01-22T01:27:33.723Z,6.03
2023-01-22T01:30:11.096Z,6.60
2023-01-22T01:32:37.960Z,6.20
2023-01-22T01:35:05.538Z,6.32
2023-01-22T01:37:32.424Z,5.85
2023-01-22T01:39:58.957Z,6.80
2023-01-22T01:42:39.017Z,6.72
2023-01-22T01:45:29.311Z,6.78
2023-01-22T01:48:16.121Z,6.53
2023-01-22T01:50:45.060Z,6.50
2023-01-22T01:53:11.685Z,6.50
2023-01-22T01:56:03.536Z,6.60
2023-01-22T01:58:47.249Z,6.47
2023-01-22T02:01:18.050Z,6.62
2023-01-22T02:03:49.165Z,7.40
2023-01-22T02:06:22.111Z,7.10
2023-01-22T02:08:50.490Z,6.93
2023-01-22T02:11:19.039Z,7.50
2023-01-22T02:13:51.491Z,6.78
2023-01-22T02:16:18.906Z,6.78
2023-01-22T02:18:45.558Z,6.82
2023-01-22T02:21:43.314Z,7.28
2023-01-22T02:24:13.284Z,6.37
2023-01-22T02:27:00.004Z,6.68
2023-01-22T02:29:39.754Z,7.03
2023-01-22T02:32:06.556Z,6.90
2023-01-22T02:34:33.439Z,7.47
2023-01-22T02:37:01.139Z,6.97
2023-01-22T02:39:52.728Z,6.60
2023-01-22T02:42:47.239Z,7.07
2023-01-22T02:45:13.910Z,6.82
2023-01-22T02:47:40.734Z,6.72
2023-01-22T02:50:08.154Z,6.93
2023-01-22T02:52:34.786Z,7.00
2023-01-22T02:55:01.317Z,6.82
2023-01-22T02:57:30.298Z,7.18
2023-01-22T02:59:57.537Z,7.28
2023-01-22T03:02:25.520Z,7.47
2023-01-22T03:05:03.145Z,7.10
2023-01-22T03:07:44.908Z,7.28
2023-01-22T03:10:35.790Z,7.87
2023-01-22T03:13:45.076Z,6.50
2023-01-22T03:16:30.200Z,6.90
2023-01-22T03:19:15.469Z,6.05
2023-01-22T03:21:43.967Z,7.25
2023-01-22T03:24:10.627Z,6.53
2023-01-22T03:26:37.169Z,6.65
2023-01-22T03:29:18.791Z,6.60
2023-01-22T03:31:48.441Z,6.78
2023-01-22T03:34:16.889Z,5.90
2023-01-22T03:36:43.782Z,6.40
2023-01-22T03:39:44.472Z,6.55
2023-01-22T03:42:32.761Z,6.62
2023-01-22T03:44:59.301Z,5.90
2023-01-22T03:47:25.883Z,5.95
2023-01-22T03:49:52.517Z,6.05
2023-01-22T03:52:19.044Z,5.68
2023-01-22T03:54:45.587Z,6.20
2023-01-22T03:57:30.812Z,6.20
2023-01-22T04:00:02.070Z,5.37
2023-01-22T04:02:29.118Z,5.30
2023-01-22T04:04:55.766Z,4.85
2023-01-22T04:08:31.219Z,5.30
2023-01-22T04:11:28.818Z,5.50
2023-01-22T04:13:56.556Z,5.00
2023-01-22T04:16:23.377Z,4.90
2023-01-22T04:18:50.164Z,4.53
2023-01-22T04:21:16.743Z,5.20
2023-01-22T04:23:43.311Z,4.80
2023-01-22T04:26:09.905Z,4.45
2023-01-22T04:28:36.443Z,5.10
2023-01-22T04:31:04.752Z,4.60
2023-01-22T04:33:31.952Z,4.47
2023-01-22T04:35:58.617Z,4.20
2023-01-22T04:38:25.229Z,4.22
2023-01-22T04:40:51.781Z,4.60
2023-01-22T04:43:18.396Z,4.62
2023-01-22T04:45:45.129Z,4.12
2023-01-22T04:48:12.748Z,4.25
2023-01-22T04:50:39.328Z,4.12
2023-01-22T04:53:05.909Z,4.12
2023-01-22T04:55:32.599Z,4.10
2023-01-22T04:58:57.909Z,4.10
2023-01-22T05:01:44.535Z,4.12
2023-01-22T05:04:11.341Z,4.15
2023-01-22T05:06:37.922Z,3.87
2023-01-22T05:09:04.506Z,4.10
2023-01-22T05:11:31.036Z,3.92
2023-01-22T05:13:57.612Z,3.78
2023-01-22T05:19:13.083Z,3.67
2023-01-22T05:21:39.601Z,4.40
2023-01-22T05:24:06.520Z,3.72
2023-01-22T05:26:35.303Z,4.72
2023-01-22T05:29:01.898Z,3.92
2023-01-22T05:31:47.419Z,3.85
2023-01-22T05:37:10.497Z,3.97
2023-01-22T05:39:37.072Z,3.87
2023-01-22T05:42:03.747Z,4.15
2023-01-22T05:44:31.732Z,4.22
2023-01-22T05:47:09.430Z,4.03
2023-01-22T05:49:35.992Z,4.03
2023-01-22T05:52:02.574Z,3.87
2023-01-22T05:54:29.171Z,4.50
2023-01-22T05:56:55.820Z,4.43
2023-01-22T05:59:22.421Z,4.20
2023-01-22T06:02:04.199Z,4.47
2023-01-22T06:04:30.775Z,4.00
2023-01-22T06:06:57.479Z,4.62
2023-01-22T06:09:24.569Z,4.72
2023-01-22T06:12:13.117Z,5.00
2023-01-22T06:15:32.471Z,4.45
2023-01-22T06:18:02.251Z,4.68
2023-01-22T06:20:28.837Z,4.22
2023-01-22T06:22:55.596Z,4.70
2023-01-22T06:25:22.155Z,5.32
2023-01-22T06:27:48.673Z,4.32
2023-01-22T06:30:16.021Z,4.00
2023-01-22T06:50:25.148Z,4.78
2023-01-22T06:52:51.733Z,5.15
2023-01-22T06:55:18.398Z,4.30
2023-01-22T06:57:44.997Z,4.32
2023-01-22T07:00:11.900Z,4.53
2023-01-22T07:02:38.504Z,4.07
2023-01-22T07:12:55.537Z,4.53
2023-01-22T07:15:22.451Z,5.22
2023-01-22T07:17:52.685Z,4.55
2023-01-22T07:20:20.990Z,4.70
2023-01-22T07:22:47.559Z,4.82
2023-01-22T07:25:14.576Z,4.47
2023-01-22T07:27:41.301Z,4.60
2023-01-22T07:30:08.443Z,5.10
2023-01-22T07:32:50.419Z,5.35
2023-01-22T07:35:18.654Z,4.95
2023-01-22T07:37:51.725Z,4.47
2023-01-22T07:43:26.692Z,5.03
2023-01-22T07:46:13.164Z,5.57
2023-01-22T07:48:39.725Z,5.45
2023-01-22T07:51:06.897Z,5.25
2023-01-22T07:53:34.750Z,5.43
2023-01-22T07:56:01.982Z,5.62
2023-01-22T07:58:30.678Z,5.53
2023-01-22T08:00:57.342Z,5.82
2023-01-22T08:03:24.068Z,5.95
2023-01-22T08:05:50.714Z,5.37
2023-01-22T08:08:20.528Z,5.10
2023-01-22T08:10:47.734Z,5.70
2023-01-22T08:13:14.871Z,5.75
2023-01-22T08:15:45.227Z,6.65
2023-01-22T08:18:11.904Z,5.68
2023-01-22T08:20:38.475Z,5.20
2023-01-22T08:23:05.229Z,6.32
2023-01-22T08:25:31.809Z,6.07
2023-01-22T08:28:02.851Z,5.60
2023-01-22T08:30:29.451Z,5.65
2023-01-22T08:32:58.107Z,6.40
2023-01-22T08:35:24.681Z,5.90
2023-01-22T08:37:51.308Z,6.55
2023-01-22T08:45:28.360Z,6.43
2023-01-22T08:47:59.872Z,6.72
2023-01-22T08:50:29.345Z,6.72
2023-01-22T08:52:57.674Z,6.90
2023-01-22T08:55:27.851Z,7.07
2023-01-22T08:57:57.657Z,6.82
2023-01-22T09:00:25.694Z,6.78
2023-01-22T09:02:59.829Z,7.25
2023-01-22T09:05:27.979Z,7.25
2023-01-22T09:07:54.675Z,7.00
2023-01-22T09:10:22.082Z,6.68
2023-01-22T09:12:48.862Z,7.18
2023-01-22T09:15:15.527Z,7.00
2023-01-22T09:17:42.583Z,7.25
2023-01-22T09:20:09.807Z,7.40
2023-01-22T09:22:36.767Z,7.62
2023-01-22T09:25:05.123Z,7.82
2023-01-22T09:27:31.884Z,7.25
2023-01-22T09:29:59.769Z,6.60
2023-01-22T09:32:26.385Z,7.78
2023-01-22T09:34:52.968Z,7.22
2023-01-22T09:37:20.273Z,7.25
2023-01-22T09:39:50.595Z,7.05
2023-01-22T09:42:31.678Z,7.72
2023-01-22T09:45:07.195Z,7.75
2023-01-22T09:47:49.495Z,8.02
2023-01-22T09:50:22.406Z,8.17
2023-01-22T09:52:52.751Z,7.78
2023-01-22T09:55:30.413Z,8.43
2023-01-22T09:58:01.943Z,9.68
2023-01-22T10:01:01.041Z,8.93
2023-01-22T10:03:41.995Z,8.80
2023-01-22T10:06:14.616Z,8.88
2023-01-22T10:09:09.767Z,7.85
2023-01-22T10:11:39.848Z,7.90
2023-01-22T10:14:12.630Z,7.80
2023-01-22T10:16:39.858Z,7.90
2023-01-22T10:19:32.953Z,8.63
2023-01-22T10:22:03.964Z,8.07
2023-01-22T10:24:30.640Z,7.78
2023-01-22T10:26:58.970Z,7.82
2023-01-22T10:29:32.149Z,7.53
2023-01-22T10:32:28.845Z,8.38
2023-01-22T10:35:20.824Z,8.52
2023-01-22T10:37:49.998Z,9.07
2023-01-22T10:40:38.354Z,7.82
2023-01-22T10:43:13.487Z,7.82
2023-01-22T10:45:54.736Z,8.50
2023-01-22T10:48:41.313Z,8.98
2023-01-22T10:51:17.828Z,10.45
2023-01-22T10:53:54.632Z,10.70
2023-01-22T10:56:46.322Z,8.73
2023-01-22T10:59:33.557Z,9.20
2023-01-22T11:02:03.591Z,8.77
2023-01-22T11:04:33.341Z,8.95
2023-01-22T11:07:07.040Z,9.10
2023-01-22T11:09:41.844Z,9.05
2023-01-22T11:12:40.371Z,8.60
2023-01-22T11:20:25.960Z,9.00
2023-01-22T11:23:10.978Z,8.25
2023-01-22T11:25:43.899Z,8.75
2023-01-22T11:28:28.381Z,8.38
2023-01-22T11:31:09.201Z,7.85
2023-01-22T11:34:22.129Z,8.45
2023-01-22T11:45:09.686Z,8.68
2023-01-22T11:48:00.481Z,9.13
2023-01-22T11:50:56.368Z,8.65
2023-01-22T11:53:48.362Z,8.85
2023-01-22T11:56:52.922Z,9.82
2023-01-22T11:59:46.384Z,9.68
2023-01-22T12:05:11.733Z,10.35
2023-01-22T12:07:52.849Z,9.40
2023-01-22T12:10:26.512Z,9.32
2023-01-22T12:15:46.363Z,13.38
2023-01-22T12:18:28.041Z,30.95
2023-01-22T12:21:15.852Z,13.40
2023-01-22T12:23:54.292Z,12.35
2023-01-22T12:26:26.122Z,13.20
2023-01-22T12:29:33.395Z,12.65
2023-01-22T12:32:13.870Z,12.20
2023-01-22T12:35:08.984Z,11.52
2023-01-22T12:37:44.286Z,12.70
2023-01-22T12:40:34.888Z,12.30
2023-01-22T12:43:03.898Z,12.37
2023-01-22T12:45:33.203Z,13.95
2023-01-22T12:48:22.324Z,14.20
2023-01-22T12:50:56.229Z,17.12
2023-01-22T12:53:30.047Z,14.50
2023-01-22T12:56:12.019Z,15.18
2023-01-22T13:01:35.988Z,15.15
2023-01-22T13:04:08.093Z,13.52
2023-01-22T13:06:40.845Z,13.60
2023-01-22T13:09:25.058Z,15.10
2023-01-22T13:11:51.688Z,14.05
2023-01-22T13:14:30.920Z,12.98
2023-01-22T13:17:03.659Z,15.63
2023-01-22T13:19:42.371Z,18.17
2023-01-22T13:22:28.438Z,15.13
2023-01-22T13:24:57.714Z,14.70
2023-01-22T13:27:33.935Z,14.23
2023-01-22T13:30:28.000Z,15.35
2023-01-22T13:33:15.605Z,15.05
2023-01-22T13:35:44.322Z,15.13
2023-01-22T13:38:28.887Z,16.83
2023-01-22T13:41:09.167Z,13.82
2023-01-22T13:43:38.584Z,17.08
2023-01-22T13:46:05.850Z,15.80
2023-01-22T13:48:32.719Z,17.83
2023-01-22T13:51:04.733Z,19.67
2023-01-22T13:53:35.320Z,18.17
2023-01-22T13:56:02.134Z,17.00
2023-01-22T13:58:49.530Z,15.70
2023-01-22T14:01:32.583Z,16.33
2023-01-22T14:04:06.921Z,15.85
2023-01-22T14:06:49.552Z,17.58
2023-01-22T14:09:31.635Z,15.15
2023-01-22T14:11:59.408Z,15.60
2023-01-22T14:14:26.724Z,19.12
2023-01-22T14:16:53.548Z,19.17
2023-01-22T14:19:20.143Z,18.90
2023-01-22T14:21:46.697Z,17.05
2023-01-22T14:27:02.291Z,14.95
2023-01-22T14:29:28.842Z,14.65
2023-01-22T14:31:55.579Z,16.95
2023-01-22T14:34:22.423Z,15.90
2023-01-22T14:36:51.243Z,15.52
2023-01-22T14:39:18.693Z,15.50
2023-01-22T14:41:51.489Z,15.50
2023-01-22T14:44:18.199Z,19.12
2023-01-22T14:46:44.945Z,17.12
2023-01-22T14:49:11.514Z,16.27
2023-01-22T14:54:45.202Z,19.65
2023-01-22T14:57:11.777Z,21.15
2023-01-22T14:59:38.436Z,21.95
2023-01-22T15:02:05.028Z,20.80
2023-01-22T15:04:31.591Z,19.25
2023-01-22T15:06:58.349Z,19.98
2023-01-22T15:09:25.272Z,19.12
2023-01-22T15:11:51.881Z,19.50
2023-01-22T15:14:18.457Z,17.85
2023-01-22T15:16:45.153Z,18.00
2023-01-22T15:19:11.797Z,19.08
2023-01-22T15:21:38.444Z,17.87
2023-01-22T15:24:05.236Z,20.62
2023-01-22T15:26:35.373Z,20.37
2023-01-22T15:29:03.542Z,19.80
2023-01-22T15:31:30.871Z,19.87
2023-01-22T15:33:59.959Z,20.33
2023-01-22T15:36:28.275Z,19.87
2023-01-22T15:38:56.818Z,18.58
2023-01-22T15:41:28.702Z,19.02
2023-01-22T15:44:01.239Z,18.35
2023-01-22T15:46:30.463Z,19.70
2023-01-22T15:48:58.822Z,29.17
2023-01-22T15:51:26.553Z,23.25
2023-01-22T15:53:59.149Z,19.52
2023-01-22T15:56:29.083Z,19.48
2023-01-22T15:58:56.915Z,20.27
2023-01-22T16:01:24.521Z,18.92
2023-01-22T16:03:51.511Z,19.70
2023-01-22T16:06:22.461Z,25.10
2023-01-22T16:08:51.404Z,24.45
2023-01-22T16:11:18.044Z,23.15
2023-01-22T16:13:45.426Z,21.12
2023-01-22T16:16:25.539Z,19.58
2023-01-22T16:18:53.477Z,20.00
2023-01-22T16:21:21.541Z,18.67
2023-01-22T16:23:53.554Z,17.90
2023-01-22T16:26:26.440Z,18.52
2023-01-22T16:29:04.967Z,19.25
2023-01-22T16:31:33.823Z,18.17
2023-01-22T16:34:07.949Z,19.15
2023-01-22T16:36:34.505Z,18.15
2023-01-22T16:39:01.530Z,17.58
2023-01-22T16:41:30.513Z,19.02
2023-01-22T16:44:05.673Z,17.90
2023-01-22T16:46:33.794Z,17.75
2023-01-22T16:49:11.182Z,18.17
2023-01-22T16:51:41.432Z,18.02
2023-01-22T16:54:08.262Z,18.83
2023-01-22T16:56:35.326Z,20.00
2023-01-22T16:59:02.183Z,21.12
2023-01-22T17:01:30.467Z,19.65
2023-01-22T17:03:57.195Z,19.87
2023-01-22T17:06:31.330Z,19.62
2023-01-22T17:08:58.567Z,17.55
2023-01-22T17:11:25.358Z,19.45
2023-01-22T17:13:52.601Z,19.48
2023-01-22T17:16:19.527Z,18.10
2023-01-22T17:18:46.166Z,19.67
2023-01-22T17:21:16.024Z,19.37
2023-01-22T17:23:42.842Z,21.45
2023-01-22T17:26:11.817Z,20.88
2023-01-22T17:28:39.579Z,21.55
2023-01-22T17:31:11.826Z,18.92
2023-01-22T17:33:38.936Z,18.40
2023-01-22T17:36:06.753Z,19.15
2023-01-22T17:38:38.512Z,19.08
2023-01-22T17:41:11.833Z,21.15
2023-01-22T17:43:41.491Z,22.25
2023-01-22T17:46:31.492Z,21.05
2023-01-22T17:49:01.100Z,20.60
2023-01-22T17:51:29.192Z,21.65
2023-01-22T17:53:58.243Z,22.50
2023-01-22T17:56:36.551Z,33.97
2023-01-22T18:02:21.009Z,25.65
2023-01-22T18:04:47.699Z,23.87
2023-01-22T18:07:14.319Z,22.27
2023-01-22T18:09:40.890Z,19.85
2023-01-22T18:12:07.576Z,20.40
2023-01-22T18:14:34.291Z,20.92
2023-01-22T18:17:01.745Z,19.92
2023-01-22T18:19:28.457Z,20.70
2023-01-22T18:21:55.987Z,22.02
2023-01-22T18:24:24.115Z,22.02
2023-01-22T18:26:50.888Z,21.25
2023-01-22T18:29:17.493Z,19.70
2023-01-22T18:31:44.482Z,18.42
2023-01-22T18:34:14.728Z,18.52
2023-01-22T18:36:42.409Z,18.35
2023-01-22T18:39:14.872Z,17.90
2023-01-22T18:41:42.104Z,18.62
2023-01-22T18:44:10.116Z,17.73
2023-01-22T18:46:39.100Z,17.27
2023-01-22T18:49:10.565Z,16.83
2023-01-22T18:51:37.174Z,18.90
2023-01-22T18:54:07.803Z,18.75
2023-01-22T18:56:35.382Z,18.33
2023-01-22T18:59:02.005Z,19.25
2023-01-22T19:01:31.831Z,18.00
2023-01-22T19:04:01.029Z,18.35
2023-01-22T19:06:35.167Z,18.67
2023-01-22T19:09:14.059Z,18.48
2023-01-22T19:11:47.045Z,17.33
2023-01-22T19:14:17.195Z,17.90
2023-01-22T19:16:45.018Z,19.58
2023-01-22T19:19:13.675Z,17.95
2023-01-22T19:21:46.732Z,17.80
2023-01-22T19:26:42.691Z,18.83
2023-01-22T19:29:12.989Z,21.75
2023-01-22T19:31:42.947Z,24.45
2023-01-22T19:34:12.100Z,22.80
2023-01-22T19:36:39.296Z,24.17
2023-01-22T19:39:11.468Z,22.73
2023-01-22T19:41:39.400Z,20.12
2023-01-22T19:44:06.219Z,18.50
2023-01-22T19:46:34.501Z,19.70
2023-01-22T19:49:01.246Z,18.83
2023-01-22T19:51:30.579Z,17.98
2023-01-22T19:54:00.209Z,16.98
2023-01-22T19:56:30.086Z,19.02
2023-01-22T19:59:03.077Z,19.10
2023-01-22T20:03:56.459Z,17.00
2023-01-22T20:06:24.045Z,18.95
2023-01-22T20:08:51.799Z,18.00
2023-01-22T20:11:18.733Z,18.80
2023-01-22T20:13:45.327Z,18.08
2023-01-22T20:16:20.062Z,17.23
2023-01-22T20:18:47.473Z,17.52
2023-01-22T20:21:16.489Z,17.50
2023-01-22T20:23:44.592Z,19.20
2023-01-22T20:26:11.581Z,17.02
2023-01-22T20:28:39.742Z,19.12
2023-01-22T20:31:11.029Z,18.17
2023-01-22T20:33:38.058Z,17.37
2023-01-22T20:36:08.205Z,17.65
2023-01-22T20:38:35.416Z,16.27
2023-01-22T20:41:09.201Z,16.70
2023-01-22T20:43:40.391Z,17.08
2023-01-22T20:56:31.579Z,16.87
2023-01-22T20:59:02.529Z,16.77
2023-01-22T21:05:30.177Z,16.35
2023-01-22T21:07:56.789Z,17.27
2023-01-22T21:10:23.352Z,18.23
2023-01-22T21:12:49.930Z,16.60
2023-01-22T21:15:16.544Z,18.45
2023-01-22T21:17:43.066Z,21.85
2023-01-22T21:20:10.647Z,17.65
2023-01-22T21:22:39.627Z,17.02
2023-01-22T21:25:06.900Z,16.27
2023-01-22T21:27:33.794Z,18.40
2023-01-22T21:30:00.350Z,16.20
2023-01-22T21:32:28.097Z,16.23
2023-01-22T21:34:54.720Z,15.38
2023-01-22T21:37:21.279Z,16.08
2023-01-22T21:39:47.972Z,15.63
2023-01-22T21:42:33.620Z,16.17
2023-01-22T21:45:18.525Z,16.60
2023-01-22T21:47:45.160Z,15.30
2023-01-22T21:55:23.556Z,16.52
2023-01-22T21:57:51.532Z,15.73
2023-01-22T22:00:19.710Z,14.52
2023-01-22T22:02:46.623Z,14.75
2023-01-22T22:05:34.498Z,14.48
2023-01-22T22:11:25.258Z,15.73
2023-01-22T22:13:52.334Z,14.70
2023-01-22T22:16:19.080Z,15.68
2023-01-22T22:18:45.996Z,14.55
2023-01-22T22:21:27.940Z,15.25
2023-01-22T22:23:58.149Z,14.35
2023-01-22T22:26:25.236Z,14.80
2023-01-22T22:28:52.392Z,12.32
2023-01-22T22:31:19.743Z,15.13
2023-01-22T22:33:48.894Z,13.88
2023-01-22T22:36:46.702Z,13.85
2023-01-22T22:39:28.657Z,13.98
2023-01-22T22:41:55.266Z,13.62
2023-01-22T22:44:21.893Z,19.73
2023-01-22T22:50:16.235Z,17.73
2023-01-22T22:52:43.493Z,13.70
2023-01-22T22:55:10.260Z,12.50
2023-01-22T22:57:36.866Z,11.75
2023-01-22T23:00:19.155Z,11.18
2023-01-22T23:02:45.829Z,11.48
2023-01-22T23:10:28.918Z,10.10
2023-01-22T23:13:00.686Z,11.40
2023-01-22T23:15:29.619Z,9.90
2023-01-22T23:17:57.754Z,10.88
2023-01-22T23:21:08.188Z,11.00
2023-01-22T23:24:24.573Z,11.18
2023-01-22T23:27:03.023Z,10.23
2023-01-22T23:29:29.657Z,10.18
2023-01-22T23:31:56.797Z,10.48
2023-01-22T23:34:23.685Z,10.45
2023-01-22T23:37:02.783Z,10.93
2023-01-22T23:39:29.479Z,10.00
2023-01-22T23:41:56.017Z,9.73
2023-01-22T23:44:22.608Z,10.13
2023-01-22T23:46:49.202Z,9.25
2023-01-22T23:49:15.858Z,10.13
2023-01-22T23:51:44.346Z,8.85
2023-01-22T23:54:11.146Z,8.93
2023-01-22T23:56:37.936Z,10.25
2023-01-22T23:59:04.950Z,8.75
